BGSO2: Deep Fork River, Beggs, Okla

Data processed at Tue May 21 2019 22:10


All information presented herein is the property of the government of the United States of America and may be revised or deleted at any time without prior notice.
Dissemination of this information without the expressed written consent of the Public Affairs Office, Tulsa District U.S. Army Corps of Engineers is strictly prohibited.
These data are gathered electronically and, as presented, have not undergone any form of quality control. These data are not guaranteed to be valid or correct.
Go to home page.
Go to station list.
Go to home page.

Upstream stations:

Downstream station:
Previous Day
Next Day
Current Day
    
SHEF ID:       BGSO2     Deep Fork near Beggs, OK
STATION TYPE:  
Regulating: Stage =    18.00, Flow =     8391

               PRECIP     STAGE  STAGE(2)  RIV-FLOW  BAT-LOAD
                   in        ft        ft       cfs      volt
              Ccp-Rev   Ccp-Rev   Ccp-Rev   Ccp-Rev   Ccp-Rev
(US/Central)
05/21 00:00      0.38     10.99     11.19      3887     12.57
05/21 01:00      0.00     11.24     11.51      4023     12.49
05/21 02:00      0.02     11.65     11.86      4250     12.49
05/21 03:00      0.01     12.11     12.37      4511     12.49
05/21 04:00      0.01     12.62     12.87      4807     12.49
05/21 05:00      0.00     13.09     13.32      5088     12.49
05/21 06:00      0.00     13.52     13.72      5350     12.41
05/21 07:00      0.74     13.99     14.27      5642     12.41
05/21 08:00      0.19     14.72     15.02      6109     12.41
05/21 09:00      0.09     15.35     15.64      6524     12.41
05/21 10:00      0.00     15.81     16.01      6834     12.49
05/21 11:00      0.00     15.96     16.27      6937     12.73
05/21 12:00      0.00     16.17     16.48      7081     12.89
05/21 13:00      0.00     16.46     16.73      7283     13.05
05/21 14:00      0.00     16.47     16.95      7290      ----
05/21 15:00      0.00     16.67     17.14      7430     13.44
05/21 16:00      0.00     16.97     17.35      7642     13.44
05/21 17:00      0.00     17.14     17.49      7764     13.37
05/21 18:00      0.00     17.20     17.55      7807     13.05
05/21 19:00      0.00     17.36     17.67      7922     12.81
05/21 20:00      0.00     17.34     17.76      7908     12.73
05/21 21:00      0.00     17.45     17.82      7987     12.65
05/21 22:00      ----      ----      ----      ----      ----
05/21 23:00      ----      ----      ----      ----      ----